createdAt,value
2019-04-16T00:00:11.892Z,4.45
2019-04-16T00:05:27.727Z,4.44
2019-04-16T00:10:40.393Z,4.19
2019-04-16T00:15:46.505Z,4.39
2019-04-16T00:21:09.507Z,4.19
2019-04-16T00:26:13.749Z,4.18
2019-04-16T00:31:19.944Z,4.12
2019-04-16T00:36:25.464Z,4.03
2019-04-16T00:41:31.020Z,3.83
2019-04-16T00:46:37.053Z,3.95
2019-04-16T00:51:44.082Z,3.83
2019-04-16T00:56:50.302Z,3.91
2019-04-16T01:01:56.973Z,3.63
2019-04-16T01:07:02.566Z,3.69
2019-04-16T01:12:08.202Z,3.58
2019-04-16T01:17:14.085Z,3.57
2019-04-16T01:22:20.061Z,3.36
2019-04-16T01:27:35.237Z,3.30
2019-04-16T01:32:58.108Z,3.30
2019-04-16T01:38:21.684Z,3.19
2019-04-16T01:43:27.197Z,3.31
2019-04-16T01:48:32.710Z,2.90
2019-04-16T01:53:38.687Z,2.86
2019-04-16T01:58:44.174Z,2.77
2019-04-16T02:03:50.226Z,2.62
2019-04-16T02:08:55.913Z,2.82
2019-04-16T02:14:02.992Z,2.97
2019-04-16T02:19:08.830Z,2.58
2019-04-16T02:24:18.523Z,2.55
2019-04-16T02:29:22.641Z,2.69
2019-04-16T02:34:32.286Z,2.57
2019-04-16T02:39:49.961Z,2.45
2019-04-16T02:44:49.889Z,2.45
2019-04-16T02:49:56.807Z,2.23
2019-04-16T02:55:24.855Z,2.19
2019-04-16T03:00:52.586Z,2.29
2019-04-16T03:06:00.651Z,2.28
2019-04-16T03:11:13.736Z,2.18
2019-04-16T03:16:41.453Z,2.19
2019-04-16T03:21:46.990Z,2.10
2019-04-16T03:26:52.525Z,2.00
2019-04-16T03:31:59.645Z,1.98
2019-04-16T03:37:05.883Z,1.93
2019-04-16T03:42:11.640Z,2.01
2019-04-16T03:47:19.152Z,1.83
2019-04-16T03:52:24.958Z,1.95
2019-04-16T03:57:33.275Z,1.55
2019-04-16T04:02:38.645Z,1.93
2019-04-16T04:07:45.078Z,1.69
2019-04-16T04:12:51.056Z,1.76
2019-04-16T04:17:56.931Z,1.74
2019-04-16T04:23:02.738Z,1.84
2019-04-16T04:28:08.577Z,1.80
2019-04-16T04:33:33.489Z,1.93
2019-04-16T04:38:42.363Z,1.90
2019-04-16T04:43:48.204Z,2.15
2019-04-16T04:48:55.693Z,2.01
2019-04-16T04:54:01.187Z,2.32
2019-04-16T04:59:07.440Z,2.76
2019-04-16T05:04:23.448Z,3.32
2019-04-16T05:09:29.553Z,3.78
2019-04-16T05:14:37.899Z,3.92
2019-04-16T05:19:44.552Z,3.92
2019-04-16T05:24:50.615Z,4.74
2019-04-16T05:29:56.615Z,4.90
2019-04-16T05:35:02.227Z,5.02
2019-04-16T05:40:08.451Z,4.79
2019-04-16T05:45:15.865Z,5.11
2019-04-16T05:50:21.908Z,5.15
2019-04-16T05:55:36.499Z,6.19
2019-04-16T06:01:16.111Z,6.49
2019-04-16T06:06:23.208Z,6.47
2019-04-16T06:11:35.513Z,6.57
2019-04-16T06:16:58.434Z,6.74
2019-04-16T06:22:28.167Z,6.29
2019-04-16T06:27:39.216Z,6.83
2019-04-16T06:32:50.652Z,7.00
2019-04-16T06:38:09.283Z,7.68
2019-04-16T06:43:27.363Z,8.15
2019-04-16T06:48:37.174Z,8.47
2019-04-16T06:54:02.638Z,8.24
2019-04-16T06:59:36.329Z,9.46
2019-04-16T07:05:03.640Z,10.45
2019-04-16T07:10:16.987Z,11.43
2019-04-16T07:15:27.836Z,11.32
2019-04-16T07:20:31.294Z,11.08
2019-04-16T07:25:41.711Z,11.81
2019-04-16T07:31:02.157Z,11.70
2019-04-16T07:36:28.242Z,11.33
2019-04-16T07:42:11.768Z,11.44
2019-04-16T07:47:25.861Z,11.62
2019-04-16T07:53:02.499Z,11.90
2019-04-16T07:58:08.987Z,11.39
2019-04-16T08:03:15.099Z,11.37
2019-04-16T08:08:24.601Z,11.98
2019-04-16T08:13:33.604Z,11.82
2019-04-16T08:18:49.360Z,11.83
2019-04-16T08:24:02.059Z,12.18
2019-04-16T08:29:07.600Z,12.38
2019-04-16T08:34:13.887Z,12.89
2019-04-16T08:39:20.040Z,13.50
2019-04-16T08:44:25.569Z,13.17
2019-04-16T08:49:32.179Z,13.54
2019-04-16T08:54:37.709Z,14.60
2019-04-16T08:59:43.345Z,14.72
2019-04-16T09:04:48.918Z,15.34
2019-04-16T09:09:57.956Z,14.96
2019-04-16T09:15:02.941Z,14.31
2019-04-16T09:20:12.885Z,15.13
2019-04-16T09:26:11.224Z,15.65
2019-04-16T09:31:28.497Z,15.16
2019-04-16T09:36:53.043Z,15.36
2019-04-16T09:41:59.826Z,15.34
2019-04-16T09:47:05.616Z,15.13
2019-04-16T09:52:15.176Z,15.28
2019-04-16T09:57:20.928Z,16.18
2019-04-16T10:02:31.445Z,16.40
2019-04-16T10:14:11.929Z,15.94
2019-04-16T10:19:17.520Z,16.13
2019-04-16T10:24:44.591Z,16.72
2019-04-16T10:29:50.041Z,15.88
2019-04-16T10:34:55.570Z,15.50
2019-04-16T10:40:26.817Z,14.97
2019-04-16T10:45:45.610Z,15.58
2019-04-16T10:50:58.936Z,16.10
2019-04-16T10:56:26.858Z,15.97
2019-04-16T11:01:50.048Z,16.91
2019-04-16T11:06:55.701Z,15.89
2019-04-16T11:12:05.122Z,14.81
2019-04-16T11:17:08.852Z,15.80
2019-04-16T11:22:16.118Z,15.45
2019-04-16T11:27:22.557Z,16.21
2019-04-16T11:32:30.076Z,16.65
2019-04-16T11:37:36.376Z,16.04
2019-04-16T11:42:42.625Z,15.70
2019-04-16T11:47:48.545Z,15.62
2019-04-16T11:52:58.206Z,16.01
2019-04-16T11:58:05.762Z,15.49
2019-04-16T12:03:25.080Z,15.69
2019-04-16T12:08:39.768Z,16.01
2019-04-16T12:13:50.875Z,16.54
2019-04-16T12:19:14.764Z,16.73
2019-04-16T12:24:51.141Z,17.02
2019-04-16T12:30:21.813Z,16.75
2019-04-16T12:35:49.091Z,17.00
2019-04-16T12:41:21.152Z,15.93
2019-04-16T12:46:57.719Z,16.45
2019-04-16T12:52:28.211Z,16.34
2019-04-16T12:58:05.043Z,16.35
2019-04-16T13:03:28.264Z,17.25
2019-04-16T13:08:42.929Z,16.64
2019-04-16T13:14:03.084Z,16.36
2019-04-16T13:19:27.546Z,16.49
2019-04-16T13:24:57.985Z,16.25
2019-04-16T13:30:07.453Z,16.71
2019-04-16T13:35:13.046Z,17.31
2019-04-16T13:40:19.483Z,16.36
2019-04-16T13:45:30.077Z,16.96
2019-04-16T13:50:47.662Z,16.90
2019-04-16T13:56:10.920Z,17.28
2019-04-16T14:01:19.895Z,17.58
2019-04-16T14:06:25.918Z,16.96
2019-04-16T14:11:31.416Z,16.85
2019-04-16T14:16:37.384Z,17.11
2019-04-16T14:21:44.944Z,16.88
2019-04-16T14:26:54.359Z,17.01
2019-04-16T14:32:00.009Z,17.41
2019-04-16T14:37:06.348Z,16.83
2019-04-16T14:42:12.688Z,17.07
2019-04-16T14:47:19.825Z,17.24
2019-04-16T14:52:26.601Z,16.78
2019-04-16T14:57:33.541Z,17.26
2019-04-16T15:02:44.511Z,17.82
2019-04-16T15:08:00.700Z,17.18
2019-04-16T15:13:19.020Z,16.70
2019-04-16T15:18:36.980Z,16.88
2019-04-16T15:24:01.987Z,17.02
2019-04-16T15:29:14.804Z,16.88
2019-04-16T15:34:23.317Z,16.11
2019-04-16T15:39:35.403Z,16.73
2019-04-16T15:44:47.065Z,16.84
2019-04-16T15:50:06.628Z,16.26
2019-04-16T15:55:49.434Z,15.70
2019-04-16T16:01:13.084Z,15.83
2019-04-16T16:06:24.811Z,15.91
2019-04-16T16:11:39.118Z,15.83
2019-04-16T16:16:44.580Z,15.68
2019-04-16T16:21:50.109Z,15.71
2019-04-16T16:26:55.665Z,15.55
2019-04-16T16:32:01.620Z,15.54
2019-04-16T16:37:07.523Z,15.32
2019-04-16T16:42:13.186Z,15.28
2019-04-16T16:47:23.586Z,15.29
2019-04-16T16:52:45.671Z,15.16
2019-04-16T16:58:09.031Z,15.03
2019-04-16T17:03:36.591Z,14.81
2019-04-16T17:08:43.319Z,14.85
2019-04-16T17:13:52.471Z,14.58
2019-04-16T17:19:00.745Z,14.59
2019-04-16T17:24:10.690Z,14.39
2019-04-16T17:29:19.425Z,14.32
2019-04-16T17:34:25.401Z,13.85
2019-04-16T17:39:54.920Z,13.66
2019-04-16T17:45:18.489Z,13.93
2019-04-16T17:50:51.304Z,14.02
2019-04-16T17:56:15.785Z,13.97
2019-04-16T18:01:40.346Z,13.59
2019-04-16T18:07:09.960Z,13.35
2019-04-16T18:12:35.697Z,13.33
2019-04-16T18:18:01.631Z,13.39
2019-04-16T18:23:17.482Z,13.18
2019-04-16T18:28:32.628Z,12.94
2019-04-16T18:34:01.753Z,12.66
2019-04-16T18:39:39.694Z,12.66
2019-04-16T18:45:14.341Z,12.56
2019-04-16T18:50:26.071Z,12.36
2019-04-16T18:55:34.215Z,12.09
2019-04-16T19:00:47.574Z,11.90
2019-04-16T19:05:54.690Z,11.57
2019-04-16T19:11:01.670Z,11.35
2019-04-16T19:16:09.532Z,11.23
2019-04-16T19:21:15.632Z,11.32
2019-04-16T19:26:24.043Z,11.39
2019-04-16T19:31:37.283Z,11.30
2019-04-16T19:36:47.088Z,11.28
2019-04-16T19:41:58.211Z,11.18
2019-04-16T19:47:04.434Z,11.20
2019-04-16T19:52:14.271Z,11.15
2019-04-16T19:57:19.656Z,10.89
2019-04-16T20:02:27.208Z,10.80
2019-04-16T20:07:36.654Z,10.63
2019-04-16T20:12:51.389Z,10.61
2019-04-16T20:18:01.872Z,10.49
2019-04-16T20:23:09.835Z,10.31
2019-04-16T20:28:16.367Z,10.17
2019-04-16T20:33:23.062Z,10.14
2019-04-16T20:38:33.024Z,9.95
2019-04-16T20:43:41.473Z,9.71
2019-04-16T20:49:07.711Z,9.50
2019-04-16T20:54:04.449Z,9.35
2019-04-16T20:59:10.094Z,9.37
2019-04-16T21:04:15.677Z,8.92
2019-04-16T21:09:21.217Z,8.97
2019-04-16T21:14:29.588Z,8.67
2019-04-16T21:19:48.345Z,8.58
2019-04-16T21:25:13.840Z,8.71
2019-04-16T21:30:21.226Z,8.31
2019-04-16T21:35:51.932Z,8.50
2019-04-16T21:40:57.826Z,8.16
2019-04-16T21:46:12.556Z,7.83
2019-04-16T21:51:19.489Z,7.71
2019-04-16T21:56:28.041Z,7.94
2019-04-16T22:01:45.600Z,7.84
2019-04-16T22:06:54.127Z,7.66
2019-04-16T22:11:59.849Z,7.51
2019-04-16T22:17:07.609Z,7.42
2019-04-16T22:22:15.772Z,7.45
2019-04-16T22:27:24.898Z,7.25
2019-04-16T22:32:31.989Z,7.25
2019-04-16T22:37:37.473Z,7.09
2019-04-16T22:43:06.266Z,7.08
2019-04-16T22:48:08.863Z,6.90
2019-04-16T22:53:18.020Z,6.65
2019-04-16T22:58:32.677Z,6.73
2019-04-16T23:03:40.005Z,6.91
2019-04-16T23:08:45.502Z,6.42
2019-04-16T23:13:50.943Z,6.37
2019-04-16T23:19:04.654Z,6.33
2019-04-16T23:24:13.610Z,6.36
2019-04-16T23:29:23.402Z,6.17
2019-04-16T23:34:34.868Z,6.02
2019-04-16T23:39:39.701Z,6.02
2019-04-16T23:45:05.659Z,5.94
2019-04-16T23:50:44.867Z,5.79
2019-04-16T23:55:52.374Z,5.79
